• Join FlightAware (Why Join?)
  • Login
  • US Flag 
10:18AM EST


 

Airport Tracker/Info


-or-


 

Live Flight TrackerFlight Track Log ✈ CSN6923 ✈ 15-Apr-2013 ✈ ZGSZ / SZX - ZPPP / KMG

Flight Track Log - Related Links

Times and Time Zones

All times are in EDT time to prevent confusion due to time zone crossing. See the CSN6923 flight status page for this flight to view local times or setup timezone preferences in your user account.

Time Position Orientation Groundspeed Altitude Reporting Facility
EDT Latitude Longitude Course Direction KTS MPH feet Rate Location/Type
07:32AM 22.6690 113.7012 286° West  Level Estimated
07:33AM 22.6984 113.5900 286° West  Level Estimated
07:34AM 22.7278 113.4787 286° West  Level Estimated
07:35AM 22.7570 113.3673 286° West  Level Estimated
07:36AM 22.7862 113.2560 286° West  Level Estimated
07:37AM 22.8154 113.1445 286° West  Level Estimated
07:38AM 22.8444 113.0330 286° West  Level Estimated
07:39AM 22.8734 112.9215 286° West  Level Estimated
07:40AM 22.9023 112.8099 286° West  Level Estimated
07:41AM 22.9311 112.6983 286° West  Level Estimated
07:42AM 22.9598 112.5866 286° West  Level Estimated
07:43AM 22.9885 112.4749 286° West  Level Estimated
07:44AM 23.0170 112.3631 286° West  Level Estimated
07:45AM 23.0455 112.2513 286° West  Level Estimated
07:46AM 23.0740 112.1395 285° West  Level Estimated
07:47AM 23.1023 112.0275 285° West  Level Estimated
07:48AM 23.1306 111.9156 285° West  Level Estimated
07:49AM 23.1588 111.8036 285° West  Level Estimated
07:50AM 23.1868 111.6915 285° West  Level Estimated
07:51AM 23.2149 111.5794 285° West  Level Estimated
07:52AM 23.2428 111.4673 285° West  Level Estimated
07:53AM 23.2707 111.3551 285° West  Level Estimated
07:54AM 23.2985 111.2429 285° West  Level Estimated
07:55AM 23.3262 111.1306 285° West  Level Estimated
07:56AM 23.3538 111.0182 285° West  Level Estimated
07:57AM 23.3814 110.9059 285° West  Level Estimated
07:58AM 23.4088 110.7934 285° West  Level Estimated
07:59AM 23.4362 110.6810 285° West  Level Estimated
08:00AM 23.4635 110.5684 285° West  Level Estimated
08:01AM 23.4908 110.4559 285° West  Level Estimated
08:02AM 23.5179 110.3433 285° West  Level Estimated
08:03AM 23.5450 110.2306 285° West  Level Estimated
08:04AM 23.5719 110.1179 285° West  Level Estimated
08:05AM 23.5988 110.0051 285° West  Level Estimated
08:06AM 23.6257 109.8923 285° West  Level Estimated
08:07AM 23.6524 109.7795 285° West  Level Estimated
08:08AM 23.6791 109.6666 284° West  Level Estimated
08:09AM 23.7056 109.5537 284° West  Level Estimated
08:10AM 23.7321 109.4407 284° West  Level Estimated
08:11AM 23.7585 109.3277 284° West  Level Estimated
08:12AM 23.7848 109.2146 284° West  Level Estimated
08:13AM 23.8111 109.1015 284° West  Level Estimated
08:14AM 23.8372 108.9883 284° West  Level Estimated
08:15AM 23.8633 108.8751 284° West  Level Estimated
08:16AM 23.8893 108.7618 284° West  Level Estimated
08:17AM 23.9152 108.6486 284° West  Level Estimated
08:18AM 23.9411 108.5352 284° West  Level Estimated
08:19AM 23.9668 108.4218 284° West  Level Estimated
08:20AM 23.9925 108.3084 284° West  Level Estimated
08:21AM 24.0181 108.1949 284° West  Level Estimated
08:22AM 24.0436 108.0814 284° West  Level Estimated
08:23AM 24.0690 107.9678 284° West  Level Estimated
08:24AM 24.0943 107.8542 284° West  Level Estimated
08:25AM 24.1196 107.7405 284° West  Level Estimated
08:26AM 24.1447 107.6268 284° West  Level Estimated
08:27AM 24.1698 107.5130 284° West  Level Estimated
08:28AM 24.1948 107.3992 284° West  Level Estimated
08:29AM 24.2197 107.2854 284° West  Level Estimated
08:30AM 24.2445 107.1715 283° West  Level Estimated
08:31AM 24.2693 107.0576 283° West  Level Estimated
08:32AM 24.2939 106.9436 283° West  Level Estimated
08:33AM 24.3185 106.8296 283° West  Level Estimated
08:34AM 24.3430 106.7156 283° West  Level Estimated
08:35AM 24.3673 106.6014 283° West  Level Estimated
08:36AM 24.3917 106.4873 283° West  Level Estimated
08:37AM 24.4159 106.3731 283° West  Level Estimated
08:38AM 24.4400 106.2589 283° West  Level Estimated
08:39AM 24.4641 106.1446 283° West  Level Estimated
08:40AM 24.4881 106.0303 283° West  Level Estimated
08:41AM 24.5119 105.9159 283° West  Level Estimated
08:42AM 24.5357 105.8015 283° West  Level Estimated
08:43AM 24.5595 105.6870 283° West  Level Estimated
08:44AM 24.5831 105.5725 283° West  Level Estimated
08:45AM 24.6066 105.4580 283° West  Level Estimated
08:46AM 24.6301 105.3434 283° West  Level Estimated
08:47AM 24.6534 105.2288 283° West  Level Estimated
08:48AM 24.6767 105.1141 283° West  Level Estimated
08:49AM 24.6999 104.9994 283° West  Level Estimated
08:50AM 24.7230 104.8846 283° West  Level Estimated
08:51AM 24.7460 104.7698 282° West  Level Estimated
08:52AM 24.7689 104.6550 282° West  Level Estimated
08:53AM 24.7918 104.5401 282° West  Level Estimated
08:54AM 24.8145 104.4252 282° West  Level Estimated
08:55AM 24.8372 104.3102 282° West  Level Estimated
08:56AM 24.8598 104.1952 282° West  Level Estimated
08:57AM 24.8823 104.0802 282° West  Level Estimated
08:58AM 24.9047 103.9651 282° West  Level Estimated
08:59AM 24.9270 103.8500 282° West  Level Estimated
09:00AM 24.9492 103.7348 282° West  Level Estimated
09:01AM 24.9713 103.6196 282° West  Level Estimated
09:02AM 24.9934 103.5043 282° West  Level Estimated
09:03AM 25.0153 103.3890 282° West  Level Estimated
09:04AM 25.0372 103.2737 282° West  Level Estimated
09:05AM 25.0590 103.1583 282° West  Level Estimated
09:06AM 25.0807 103.0428 282° West  Level Estimated
09:07AM 25.1019 102.9292 282° West  Level Estimated
09:08AM 25.1019 102.9292 326° Northwest  Level Estimated
09:09AM 25.1019 102.9292 326° Northwest  Level Estimated
09:10AM 25.1019 102.9292 326° Northwest  Level Estimated
09:11AM 25.1019 102.9292 326° Northwest  Level Estimated
09:12AM 25.1019 102.9292 326° Northwest  Level Estimated
09:13AM 25.1019 102.9292 326° Northwest  Level Estimated
09:14AM 25.1019 102.9292 326° Northwest  Level Estimated
09:15AM 25.1019 102.9292 326° Northwest  Level Estimated
09:16AM 25.1019 102.9292 326° Northwest  Level Estimated
09:17AM 25.1019 102.9292 326° Northwest  Level Estimated
09:18AM 25.1019 102.9292 326° Northwest  Level Estimated
09:19AM 25.1019 102.9292 326° Northwest  Level Estimated
09:20AM 25.1019 102.9292 326° Northwest  Level Estimated
09:21AM 25.1019 102.9292 326° Northwest  Level Estimated
09:22AM 25.1019 102.9292 326° Northwest  Level Estimated
09:23AM 25.1019 102.9292 326° Northwest  Level Estimated
09:24AM 25.1019 102.9292 326° Northwest  Level Estimated
09:25AM 25.1019 102.9292 326° Northwest  Level Estimated
09:26AM 25.1019 102.9292 326° Northwest  Level Estimated
09:27AM 25.1019 102.9292 326° Northwest  Level Estimated